Time;durP1;ratioP1;P1;durP2;ratioP2;P2;SDS_P1;SDS_P2;PMS_P1;PMS_P2;Temp;Humidity;BMP_temperature;BMP_pressure;BME280_temperature;BME280_humidity;BME280_pressure;Samples;Min_cycle;Max_cycle;Signal;HPM_P1;HPM_P2
2021/07/05 00:02:06;;;;;;;11.83;6.60;;;14.10;99.90;;;;;;4995128;28;20204;-62
2021/07/05 00:04:32;;;;;;;10.80;7.07;;;14.10;99.90;;;;;;4994595;28;20257;-62
2021/07/05 00:06:59;;;;;;;8.53;6.67;;;14.00;99.90;;;;;;4994944;28;20234;-62
2021/07/05 00:09:26;;;;;;;7.70;6.90;;;14.10;99.90;;;;;;4994770;28;20262;-62
2021/07/05 00:11:54;;;;;;;12.93;7.77;;;14.00;99.90;;;;;;4994463;28;20214;-62
2021/07/05 00:14:20;;;;;;;12.00;8.23;;;14.00;99.90;;;;;;4995192;28;20223;-62
2021/07/05 00:16:47;;;;;;;8.23;7.37;;;14.00;99.90;;;;;;4994770;28;20258;-62
2021/07/05 00:19:14;;;;;;;14.00;8.03;;;13.90;99.90;;;;;;4994501;28;20723;-62
2021/07/05 00:21:40;;;;;;;10.47;6.97;;;13.90;99.90;;;;;;4994643;28;20212;-62
2021/07/05 00:24:07;;;;;;;9.10;7.30;;;13.90;99.90;;;;;;4994639;28;20265;-62
2021/07/05 00:26:34;;;;;;;9.33;7.13;;;13.90;99.90;;;;;;4993963;28;20230;-62
2021/07/05 00:29:02;;;;;;;9.47;6.87;;;13.90;99.90;;;;;;4994436;28;20269;-62
2021/07/05 00:31:29;;;;;;;8.13;6.40;;;13.90;99.90;;;;;;4994195;28;20639;-62
2021/07/05 00:33:55;;;;;;;10.77;6.07;;;13.90;99.90;;;;;;4994058;28;20214;-62
2021/07/05 00:36:22;;;;;;;8.43;5.57;;;13.90;99.90;;;;;;4993919;28;20234;-62
2021/07/05 00:38:49;;;;;;;5.73;5.00;;;13.90;99.90;;;;;;4994475;28;20677;-62
2021/07/05 00:41:15;;;;;;;7.03;5.20;;;13.90;99.90;;;;;;4993900;28;20212;-62
2021/07/05 00:43:42;;;;;;;6.23;4.63;;;13.90;99.90;;;;;;4994242;28;20269;-62
2021/07/05 00:46:10;;;;;;;5.67;4.33;;;13.90;99.90;;;;;;4994001;28;20231;-62
2021/07/05 00:48:36;;;;;;;5.13;4.63;;;14.00;99.90;;;;;;4994160;28;20214;-62
2021/07/05 00:51:03;;;;;;;9.50;4.60;;;13.90;99.90;;;;;;4994013;28;20214;-62
2021/07/05 00:53:30;;;;;;;7.63;4.77;;;14.00;99.90;;;;;;4993723;28;20207;-62
2021/07/05 00:55:57;;;;;;;7.83;4.03;;;14.00;99.90;;;;;;4993966;28;20321;-62
2021/07/05 00:58:24;;;;;;;4.80;4.30;;;14.00;99.90;;;;;;4993916;28;20262;-62
2021/07/05 01:00:51;;;;;;;7.23;4.20;;;14.00;99.90;;;;;;4993809;28;20220;-62
2021/07/05 01:03:19;;;;;;;4.40;4.00;;;14.00;99.90;;;;;;4993456;28;20204;-62
2021/07/05 01:05:45;;;;;;;6.80;4.13;;;14.00;99.90;;;;;;4993387;28;20227;-62
2021/07/05 01:08:12;;;;;;;5.33;3.67;;;14.00;99.90;;;;;;4993418;28;20211;-62
2021/07/05 01:10:39;;;;;;;8.37;3.63;;;14.00;99.90;;;;;;4993315;28;20261;-62
2021/07/05 01:13:05;;;;;;;4.87;4.30;;;14.00;99.90;;;;;;4993440;28;20208;-62
2021/07/05 01:15:33;;;;;;;4.33;3.93;;;13.90;99.90;;;;;;4993195;28;20273;-63
2021/07/05 01:18:03;;;;;;;5.80;4.17;;;14.00;99.90;;;;;;4993185;28;20214;-62
2021/07/05 01:20:33;;;;;;;5.53;4.43;;;13.90;99.90;;;;;;4993290;28;20285;-63
2021/07/05 01:23:01;;;;;;;6.10;4.07;;;13.90;99.90;;;;;;4993283;28;20195;-63
2021/07/05 01:25:30;;;;;;;5.03;4.27;;;14.00;99.90;;;;;;4992908;28;20734;-62
2021/07/05 01:27:58;;;;;;;4.70;4.00;;;14.00;99.90;;;;;;4993312;28;20200;-62
2021/07/05 01:30:25;;;;;;;5.80;4.33;;;14.00;99.90;;;;;;4993620;28;20272;-62
2021/07/05 01:32:54;;;;;;;4.43;4.03;;;14.00;99.90;;;;;;4993364;28;20209;-62
2021/07/05 01:35:21;;;;;;;5.40;4.40;;;14.00;99.90;;;;;;4992897;28;20214;-62
2021/07/05 01:37:48;;;;;;;4.63;4.10;;;14.00;99.90;;;;;;4993211;28;20692;-62
2021/07/05 01:40:18;;;;;;;4.67;4.17;;;14.00;99.90;;;;;;4993201;28;20221;-62
2021/07/05 01:42:49;;;;;;;7.63;4.63;;;14.00;99.90;;;;;;4992934;28;20225;-62
2021/07/05 01:45:16;;;;;;;6.67;4.40;;;14.00;99.90;;;;;;4993656;28;20216;-62
2021/07/05 01:47:42;;;;;;;8.10;4.50;;;14.00;99.90;;;;;;4995733;28;20257;-62
2021/07/05 01:50:09;;;;;;;6.20;4.17;;;14.00;99.90;;;;;;4993258;28;20218;-62
2021/07/05 01:52:36;;;;;;;6.47;4.47;;;14.00;99.90;;;;;;4993309;28;20208;-62
2021/07/05 01:55:04;;;;;;;6.73;4.27;;;14.00;99.90;;;;;;4993246;28;20262;-62
2021/07/05 01:57:33;;;;;;;6.70;4.20;;;14.00;99.90;;;;;;4992580;28;20717;-62
2021/07/05 02:00:05;;;;;;;5.13;4.33;;;14.00;99.90;;;;;;4992702;28;20246;-62
2021/07/05 02:02:32;;;;;;;8.27;4.67;;;14.00;99.90;;;;;;4992557;28;20207;-62
2021/07/05 02:04:59;;;;;;;5.60;4.40;;;14.00;99.90;;;;;;4992692;28;20215;-62
2021/07/05 02:07:25;;;;;;;7.10;5.13;;;14.00;99.90;;;;;;4992680;28;20231;-62
2021/07/05 02:09:52;;;;;;;6.87;4.57;;;14.00;99.90;;;;;;4992887;28;20257;-63
2021/07/05 02:12:19;;;;;;;5.53;4.63;;;14.00;99.90;;;;;;4992580;28;20676;-62
2021/07/05 02:14:47;;;;;;;6.70;5.60;;;13.90;99.90;;;;;;4992440;28;20207;-62
2021/07/05 02:17:13;;;;;;;7.97;5.07;;;13.90;99.90;;;;;;4992189;28;20227;-62
2021/07/05 02:19:40;;;;;;;7.13;5.00;;;13.90;99.90;;;;;;4992670;28;20210;-62
2021/07/05 02:22:08;;;;;;;9.53;5.07;;;13.90;99.90;;;;;;4992473;28;20266;-62
2021/07/05 02:24:35;;;;;;;7.43;5.17;;;14.00;99.90;;;;;;4992355;28;20230;-62
2021/07/05 02:27:02;;;;;;;6.83;4.93;;;14.00;99.90;;;;;;4992294;28;20231;-62
2021/07/05 02:29:29;;;;;;;5.17;4.67;;;14.00;99.90;;;;;;4992366;28;20218;-62
2021/07/05 02:31:57;;;;;;;5.57;5.07;;;14.00;99.90;;;;;;4992364;28;20746;-62
2021/07/05 02:34:23;;;;;;;7.20;4.63;;;14.00;99.90;;;;;;4992198;28;20676;-62
2021/07/05 02:36:51;;;;;;;8.47;4.97;;;14.00;99.90;;;;;;4992214;28;20275;-62
2021/07/05 02:39:18;;;;;;;7.97;4.80;;;14.00;99.90;;;;;;4992296;28;20681;-62
2021/07/05 02:41:45;;;;;;;7.33;5.10;;;14.00;99.90;;;;;;4992390;28;20230;-62
2021/07/05 02:44:11;;;;;;;6.00;4.53;;;14.10;99.90;;;;;;4991904;28;20206;-62
2021/07/05 02:46:38;;;;;;;8.57;4.57;;;14.10;99.90;;;;;;4992443;28;20640;-62
2021/07/05 02:49:06;;;;;;;7.03;4.60;;;14.10;99.90;;;;;;4992333;28;20233;-62
2021/07/05 02:51:33;;;;;;;8.40;4.63;;;14.10;99.90;;;;;;4992217;28;20738;-62
2021/07/05 02:53:59;;;;;;;5.00;4.47;;;14.10;99.90;;;;;;4992044;28;20211;-62
2021/07/05 02:56:26;;;;;;;6.63;4.93;;;14.10;99.90;;;;;;4995435;28;20232;-62
2021/07/05 02:58:52;;;;;;;6.23;4.47;;;14.10;99.90;;;;;;4995771;28;20727;-62
2021/07/05 03:01:19;;;;;;;7.57;4.67;;;14.10;99.90;;;;;;4996053;28;20219;-62
2021/07/05 03:03:46;;;;;;;6.10;4.90;;;14.10;99.90;;;;;;4995574;28;20668;-62
2021/07/05 03:06:14;;;;;;;7.30;4.17;;;14.00;99.90;;;;;;4995709;28;20716;-62
2021/07/05 03:08:41;;;;;;;7.30;4.97;;;14.10;99.90;;;;;;4995676;28;20207;-62
2021/07/05 03:11:09;;;;;;;7.80;4.90;;;14.10;99.90;;;;;;4995578;28;20215;-62
2021/07/05 03:13:36;;;;;;;6.57;4.50;;;14.10;99.90;;;;;;4995366;28;20234;-62
2021/07/05 03:16:03;;;;;;;7.00;4.10;;;14.20;99.90;;;;;;4995688;28;20224;-62
2021/07/05 03:18:30;;;;;;;7.00;4.67;;;14.20;99.90;;;;;;4995466;28;20235;-62
2021/07/05 03:20:56;;;;;;;6.47;4.30;;;14.20;99.90;;;;;;4995459;28;20615;-62
2021/07/05 03:23:25;;;;;;;4.20;3.80;;;14.40;99.90;;;;;;4995556;28;20212;-62
2021/07/05 03:25:53;;;;;;;6.10;3.93;;;14.40;99.90;;;;;;4995108;28;20707;-62
2021/07/05 03:28:20;;;;;;;4.70;3.70;;;14.50;99.90;;;;;;4995420;28;20239;-62
2021/07/05 03:30:50;;;;;;;6.83;4.10;;;14.50;99.90;;;;;;4995417;28;20720;-62
2021/07/05 03:33:17;;;;;;;4.87;4.10;;;14.50;99.90;;;;;;4995773;28;20258;-62
2021/07/05 03:35:45;;;;;;;5.73;3.90;;;14.60;99.90;;;;;;4995120;28;20251;-62
2021/07/05 03:38:12;;;;;;;5.73;3.40;;;14.60;99.90;;;;;;4995314;28;20219;-62
2021/07/05 03:40:40;;;;;;;4.23;3.50;;;14.70;99.90;;;;;;4995927;28;20211;-62
2021/07/05 03:43:08;;;;;;;5.20;3.40;;;14.70;99.90;;;;;;4996304;28;20204;-62
2021/07/05 03:45:38;;;;;;;4.87;3.30;;;14.70;99.90;;;;;;4995645;28;20211;-62
2021/07/05 03:48:06;;;;;;;5.07;3.00;;;14.80;99.90;;;;;;4995117;28;20644;-62
2021/07/05 03:50:34;;;;;;;4.70;2.97;;;14.90;99.90;;;;;;4994677;28;20207;-62
2021/07/05 03:53:01;;;;;;;3.27;2.80;;;15.00;99.90;;;;;;4995159;28;20204;-62
2021/07/05 03:55:30;;;;;;;6.00;2.97;;;15.00;99.90;;;;;;4994822;28;20220;-62
2021/07/05 03:57:59;;;;;;;6.03;3.03;;;15.10;99.90;;;;;;4994583;28;20730;-62
2021/07/05 04:00:29;;;;;;;6.83;2.80;;;15.20;99.90;;;;;;4994957;28;20204;-62
2021/07/05 04:02:56;;;;;;;7.33;3.43;;;15.20;99.90;;;;;;4994697;28;20230;-62
2021/07/05 04:05:22;;;;;;;4.57;3.00;;;15.30;99.90;;;;;;4993943;28;20266;-62
2021/07/05 04:07:49;;;;;;;4.03;2.60;;;15.40;99.90;;;;;;4994844;28;20207;-62
2021/07/05 04:10:17;;;;;;;3.87;2.67;;;15.40;99.90;;;;;;4994687;28;20299;-62
2021/07/05 04:12:44;;;;;;;3.43;3.03;;;15.40;82.70;;;;;;4994518;28;20207;-62
2021/07/05 04:15:13;;;;;;;3.33;2.63;;;15.50;1.00;;;;;;4994421;28;20262;-62
2021/07/05 04:17:40;;;;;;;5.23;4.07;;;15.60;1.00;;;;;;4994237;28;20232;-62
2021/07/05 04:20:10;;;;;;;5.50;2.70;;;15.70;1.00;;;;;;4994300;28;20254;-62
2021/07/05 04:22:37;;;;;;;5.33;2.87;;;15.70;99.90;;;;;;4994767;28;20204;-62
2021/07/05 04:25:05;;;;;;;3.47;2.90;;;15.80;99.90;;;;;;4994300;28;20261;-62
2021/07/05 04:27:32;;;;;;;4.83;2.13;;;15.80;5.50;;;;;;4994245;28;20251;-62
2021/07/05 04:29:58;;;;;;;4.17;2.50;;;15.90;99.90;;;;;;4994325;28;20254;-62
2021/07/05 04:32:26;;;;;;;2.93;2.63;;;15.90;1.00;;;;;;4993949;28;20668;-62
2021/07/05 04:34:53;;;;;;;4.77;2.60;;;15.90;1.00;;;;;;4994210;28;20212;-65
2021/07/05 04:37:19;;;;;;;9.50;3.17;;;15.90;99.90;;;;;;4986501;28;20224;-63
2021/07/05 04:39:46;;;;;;;5.67;2.63;;;15.90;99.90;;;;;;4993326;28;20217;-63
2021/07/05 04:42:13;;;;;;;9.20;3.17;;;15.90;99.90;;;;;;4993948;28;20207;-62
2021/07/05 04:44:40;;;;;;;2.73;2.40;;;15.90;99.90;;;;;;4993691;28;20234;-63
2021/07/05 04:47:07;;;;;;;5.40;2.70;;;15.80;99.90;;;;;;4993519;28;20223;-63
2021/07/05 04:49:36;;;;;;;4.63;2.93;;;15.80;99.90;;;;;;4994148;28;20242;-63
2021/07/05 04:52:04;;;;;;;10.90;3.43;;;15.80;99.90;;;;;;4994672;28;20254;-64
2021/07/05 04:54:30;;;;;;;7.13;3.00;;;15.90;1.00;;;;;;4993908;28;20219;-64
2021/07/05 04:56:57;;;;;;;7.33;3.30;;;15.90;1.00;;;;;;4993324;28;20282;-63
2021/07/05 04:59:24;;;;;;;7.37;3.30;;;15.90;1.00;;;;;;4993420;28;20204;-62
2021/07/05 05:01:51;;;;;;;5.90;2.70;;;15.80;99.90;;;;;;4993913;28;20266;-62
2021/07/05 05:04:18;;;;;;;5.27;2.20;;;15.60;1.00;;;;;;4993538;28;20203;-62
2021/07/05 05:06:46;;;;;;;2.40;1.90;;;15.50;99.90;;;;;;4993927;28;20278;-63
2021/07/05 05:09:13;;;;;;;2.67;2.27;;;15.40;99.90;;;;;;4994311;28;20203;-62
2021/07/05 05:11:39;;;;;;;2.63;1.90;;;15.30;99.90;;;;;;4993456;28;20265;-62
2021/07/05 05:14:06;;;;;;;3.17;1.93;;;15.20;99.90;;;;;;4993070;28;20207;-61
2021/07/05 05:16:33;;;;;;;3.47;2.27;;;15.10;99.90;;;;;;4993271;28;20228;-64
2021/07/05 05:18:59;;;;;;;6.17;3.00;;;15.20;99.90;;;;;;4992516;28;20290;-62
2021/07/05 05:21:26;;;;;;;4.67;3.37;;;15.10;99.90;;;;;;4993210;28;20270;-62
2021/07/05 05:23:54;;;;;;;4.73;4.30;;;15.10;99.90;;;;;;4992989;28;20235;-60
2021/07/05 05:26:21;;;;;;;7.67;4.10;;;15.10;99.90;;;;;;4992861;28;20270;-61
2021/07/05 05:28:47;;;;;;;7.03;5.40;;;15.10;99.90;;;;;;4993055;28;20564;-61
2021/07/05 05:31:14;;;;;;;7.43;6.00;;;15.00;99.90;;;;;;4993146;28;20592;-62
2021/07/05 05:33:41;;;;;;;4.17;3.77;;;15.00;99.90;;;;;;4992997;28;20270;-59
2021/07/05 05:36:08;;;;;;;5.70;3.07;;;14.90;99.90;;;;;;4985982;28;20770;-61
2021/07/05 05:38:35;;;;;;;9.40;2.77;;;14.70;99.90;;;;;;4989590;28;20207;-61
2021/07/05 05:41:03;;;;;;;5.23;2.13;;;14.50;99.90;;;;;;4989460;28;20215;-61
2021/07/05 05:43:30;;;;;;;6.37;2.17;;;14.20;63.70;;;;;;4989368;28;20221;-61
2021/07/05 05:46:01;;;;;;;4.53;2.07;;;14.10;1.00;;;;;;4989394;28;20233;-60
2021/07/05 05:48:28;;;;;;;5.57;1.93;;;14.00;3.20;;;;;;4989340;28;20239;-60
2021/07/05 05:50:54;;;;;;;4.70;2.50;;;13.90;1.00;;;;;;4989383;28;20210;-59
2021/07/05 05:53:21;;;;;;;4.57;2.03;;;13.90;24.70;;;;;;4989260;28;20227;-57
2021/07/05 05:55:48;;;;;;;5.50;2.40;;;13.80;36.60;;;;;;5004074;28;20226;-59
2021/07/05 05:58:16;;;;;;;2.83;2.17;;;13.80;66.40;;;;;;5004579;28;20233;-58
2021/07/05 06:00:43;;;;;;;3.17;2.60;;;13.90;99.90;;;;;;4989416;28;20609;-58
2021/07/05 06:03:10;;;;;;;5.03;2.50;;;13.90;99.90;;;;;;4989175;28;20222;-62
2021/07/05 06:05:37;;;;;;;3.53;2.80;;;13.90;99.90;;;;;;4988706;28;20238;-60
2021/07/05 06:08:04;;;;;;;5.37;3.20;;;14.00;99.90;;;;;;4988847;28;20643;-60
2021/07/05 06:10:31;;;;;;;5.03;3.10;;;14.10;99.90;;;;;;4989065;28;20208;-59
2021/07/05 06:12:58;;;;;;;3.90;2.63;;;14.10;99.90;;;;;;4989212;28;20216;-59
2021/07/05 06:15:26;;;;;;;6.77;3.40;;;14.10;99.90;;;;;;4988643;28;20211;-60
2021/07/05 06:17:53;;;;;;;5.90;3.30;;;14.10;99.90;;;;;;4988996;28;20817;-57
2021/07/05 06:20:21;;;;;;;5.43;3.00;;;14.00;78.80;;;;;;4990321;28;20212;-61
2021/07/05 06:22:50;;;;;;;4.67;3.73;;;14.00;64.20;;;;;;4991974;28;20213;-62
2021/07/05 06:25:17;;;;;;;4.20;2.80;;;14.10;63.90;;;;;;4991659;28;20204;-62
2021/07/05 06:27:44;;;;;;;3.47;2.80;;;14.20;99.90;;;;;;4992296;28;20270;-62
2021/07/05 06:30:11;;;;;;;7.17;3.77;;;14.30;99.90;;;;;;4995525;28;20211;-60
2021/07/05 06:32:40;;;;;;;5.67;3.73;;;14.40;99.90;;;;;;4996107;28;20207;-62
2021/07/05 06:35:08;;;;;;;7.27;4.10;;;14.40;19.90;;;;;;4995927;28;20699;-61
2021/07/05 06:37:35;;;;;;;6.60;5.00;;;14.30;1.00;;;;;;4995731;28;20276;-62
2021/07/05 06:40:02;;;;;;;7.53;5.90;;;14.30;1.00;;;;;;4996017;28;20206;-63
2021/07/05 06:42:28;;;;;;;9.83;7.13;;;14.10;99.90;;;;;;4996097;28;20644;-62
2021/07/05 06:44:55;;;;;;;9.57;6.97;;;14.10;1.00;;;;;;4995594;28;20621;-62
2021/07/05 06:47:22;;;;;;;13.37;6.90;;;14.20;1.00;;;;;;4995609;28;20227;-61
2021/07/05 06:49:50;;;;;;;10.87;6.87;;;14.30;36.80;;;;;;4995560;28;20215;-61
2021/07/05 06:52:16;;;;;;;8.67;7.23;;;14.40;95.70;;;;;;4995938;28;20266;-61
2021/07/05 06:54:43;;;;;;;10.57;7.33;;;14.50;99.90;;;;;;4995773;28;20248;-60
2021/07/05 06:57:29;;;;;;;9.43;6.80;;;14.60;99.90;;;;;;4994867;28;20732;-62
2021/07/05 06:59:56;;;;;;;11.07;6.60;;;14.70;61.00;;;;;;4995467;28;20207;-62
2021/07/05 07:02:23;;;;;;;5.30;4.70;;;14.80;70.80;;;;;;4995331;28;20234;-61
2021/07/05 07:04:51;;;;;;;6.23;4.77;;;15.00;1.00;;;;;;4995216;28;20236;-61
2021/07/05 07:07:18;;;;;;;6.47;4.80;;;15.10;20.90;;;;;;4995449;28;20666;-61
2021/07/05 07:09:44;;;;;;;7.37;4.17;;;15.20;99.90;;;;;;4995211;28;20235;-60
2021/07/05 07:12:11;;;;;;;5.10;4.37;;;15.30;1.00;;;;;;4995766;28;20215;-61
2021/07/05 07:14:38;;;;;;;5.73;4.53;;;15.40;99.90;;;;;;4994840;28;20258;-60
2021/07/05 07:17:06;;;;;;;6.50;3.83;;;15.40;1.00;;;;;;4994983;28;20227;-60
2021/07/05 07:19:33;;;;;;;6.87;4.10;;;15.30;99.90;;;;;;4995593;28;20239;-59
2021/07/05 07:22:04;;;;;;;5.50;4.00;;;15.30;99.90;;;;;;4995290;28;20258;-60
2021/07/05 07:24:32;;;;;;;6.33;3.77;;;15.40;44.90;;;;;;4994952;28;20218;-62
2021/07/05 07:26:59;;;;;;;4.97;3.90;;;15.50;1.00;;;;;;4994773;28;20227;-61
2021/07/05 07:29:25;;;;;;;4.27;3.40;;;15.60;99.90;;;;;;4994714;28;20643;-61
2021/07/05 07:31:53;;;;;;;8.23;3.40;;;15.80;99.90;;;;;;4995126;28;20219;-61
2021/07/05 07:34:20;;;;;;;5.77;2.93;;;15.90;97.20;;;;;;4995523;28;20692;-61
2021/07/05 07:36:46;;;;;;;4.77;2.73;;;16.00;99.90;;;;;;4995790;28;20259;-62
2021/07/05 07:39:17;;;;;;;6.00;3.17;;;15.90;99.90;;;;;;4996610;28;20204;-61
2021/07/05 07:41:43;;;;;;;4.17;3.20;;;15.90;99.90;;;;;;4996776;28;20214;-62
2021/07/05 07:44:10;;;;;;;4.57;3.00;;;15.90;99.90;;;;;;4999733;28;20215;-64
2021/07/05 07:46:37;;;;;;;4.33;2.80;;;15.90;1.00;;;;;;5002266;28;20223;-64
2021/07/05 07:49:04;;;;;;;5.07;3.00;;;15.90;99.90;;;;;;4995302;28;20633;-64
2021/07/05 07:51:31;;;;;;;4.90;2.90;;;15.80;99.90;;;;;;4994688;28;20211;-63
2021/07/05 07:53:58;;;;;;;3.93;2.87;;;15.80;99.90;;;;;;4994285;28;20750;-64
2021/07/05 07:56:29;;;;;;;3.73;2.80;;;15.80;1.00;;;;;;4994077;28;20736;-65
2021/07/05 07:58:56;;;;;;;6.10;3.20;;;15.70;99.90;;;;;;4994412;28;20211;-64
2021/07/05 08:01:22;;;;;;;8.10;3.30;;;15.70;99.90;;;;;;4994581;28;20234;-65
2021/07/05 08:03:49;;;;;;;7.53;3.63;;;15.60;1.00;;;;;;4994395;28;20203;-63
2021/07/05 08:06:16;;;;;;;6.90;3.43;;;15.70;99.90;;;;;;4994138;28;20278;-64
2021/07/05 08:08:46;;;;;;;7.07;3.13;;;15.90;1.00;;;;;;4994244;28;20278;-64
2021/07/05 08:11:13;;;;;;;8.20;3.33;;;16.10;1.00;;;;;;4993965;28;20204;-63
2021/07/05 08:13:41;;;;;;;5.57;2.97;;;16.30;99.90;;;;;;4994072;28;20266;-63
2021/07/05 08:16:08;;;;;;;5.40;3.00;;;16.50;96.50;;;;;;4993941;28;20231;-64
2021/07/05 08:18:34;;;;;;;5.40;3.10;;;16.40;41.60;;;;;;4994136;28;20561;-63
2021/07/05 08:21:03;;;;;;;8.40;3.40;;;16.60;99.90;;;;;;4994011;28;20676;-63
2021/07/05 08:23:29;;;;;;;6.03;2.53;;;17.00;6.40;;;;;;4993695;28;20210;-63
2021/07/05 08:25:56;;;;;;;6.20;3.13;;;17.10;1.00;;;;;;4993555;28;20286;-64
2021/07/05 08:28:24;;;;;;;7.10;3.27;;;17.10;36.60;;;;;;4994072;28;20224;-63
2021/07/05 08:30:53;;;;;;;6.83;2.90;;;17.40;1.00;;;;;;4993937;28;20214;-65
2021/07/05 08:33:20;;;;;;;6.13;3.03;;;17.60;1.00;;;;;;4993924;28;20208;-64
2021/07/05 08:35:47;;;;;;;7.77;3.37;;;17.80;99.90;;;;;;4993439;28;20282;-64
2021/07/05 08:38:13;;;;;;;12.57;3.30;;;17.70;1.00;;;;;;4993477;28;20653;-64
2021/07/05 08:40:41;;;;;;;7.60;3.47;;;17.70;1.00;;;;;;4993857;28;20262;-64
2021/07/05 08:43:09;;;;;;;9.80;3.53;;;17.60;99.90;;;;;;4994137;28;20270;-63
2021/07/05 08:45:36;;;;;;;9.67;3.70;;;17.60;99.90;;;;;;4993257;28;20208;-63
2021/07/05 08:48:05;;;;;;;9.27;3.70;;;17.50;99.90;;;;;;4993408;28;20299;-63
2021/07/05 08:50:31;;;;;;;8.97;3.43;;;17.50;1.00;;;;;;4993468;28;20216;-62
2021/07/05 08:52:59;;;;;;;7.73;3.53;;;17.30;1.00;;;;;;4993146;28;20690;-63
2021/07/05 08:55:28;;;;;;;5.87;3.57;;;17.20;24.10;;;;;;4993058;28;20208;-63
2021/07/05 08:57:56;;;;;;;6.90;3.80;;;17.30;99.90;;;;;;4993246;28;20215;-62
2021/07/05 09:00:24;;;;;;;8.20;4.10;;;17.50;99.90;;;;;;4993269;28;20260;-63
2021/07/05 09:02:52;;;;;;;7.77;3.70;;;17.60;99.90;;;;;;4993319;28;20207;-63
2021/07/05 09:05:20;;;;;;;6.60;3.37;;;17.80;99.90;;;;;;4992477;28;20214;-62
2021/07/05 09:07:59;;;;;;;6.63;3.60;;;18.00;1.00;;;;;;4993246;28;20211;-63
2021/07/05 09:10:26;;;;;;;6.20;3.90;;;18.20;1.00;;;;;;4993388;28;20570;-63
2021/07/05 09:13:10;;;;;;;6.57;3.90;;;18.30;74.10;;;;;;4993213;28;20261;-63
2021/07/05 09:15:39;;;;;;;7.47;4.60;;;18.30;99.90;;;;;;4992569;28;20239;-63
2021/07/05 09:18:32;;;;;;;6.60;4.67;;;18.50;99.90;;;;;;4992857;28;20213;-64
2021/07/05 09:21:20;;;;;;;10.20;4.90;;;18.60;99.90;;;;;;4992949;28;20625;-65
2021/07/05 09:23:52;;;;;;;6.37;4.40;;;18.60;99.90;;;;;;4992865;28;20204;-64
2021/07/05 09:26:21;;;;;;;5.10;4.20;;;18.60;99.90;;;;;;4992081;28;20305;-64
2021/07/05 09:28:48;;;;;;;7.30;4.07;;;18.70;99.90;;;;;;4992879;28;20223;-64
2021/07/05 09:31:15;;;;;;;6.67;4.50;;;18.70;9.50;;;;;;4992743;28;20212;-63
2021/07/05 09:33:46;;;;;;;7.07;4.80;;;18.80;99.90;;;;;;4992650;28;20214;-63
2021/07/05 09:36:23;;;;;;;7.50;4.30;;;19.10;99.90;;;;;;4992229;28;20228;-64
2021/07/05 09:38:50;;;;;;;6.53;3.97;;;19.00;33.00;;;;;;4992430;28;20262;-63
2021/07/05 09:41:21;;;;;;;5.53;3.83;;;19.00;1.00;;;;;;4992513;28;20212;-64
2021/07/05 09:43:54;;;;;;;4.40;3.37;;;19.00;1.00;;;;;;4992501;28;20781;-64
2021/07/05 09:46:38;;;;;;;6.20;3.33;;;19.20;1.00;;;;;;4992308;28;20645;-64
2021/07/05 09:49:20;;;;;;;10.20;3.97;;;19.20;1.00;;;;;;4992022;28;20219;-64
2021/07/05 09:52:04;;;;;;;5.80;2.97;;;18.80;1.00;;;;;;4992642;28;20203;-63
2021/07/05 09:54:31;;;;;;;8.03;3.60;;;18.70;1.00;;;;;;4992057;28;20214;-63
2021/07/05 09:56:58;;;;;;;7.70;3.40;;;18.70;1.00;;;;;;4992181;28;20235;-62
2021/07/05 09:59:25;;;;;;;6.93;3.90;;;18.50;1.00;;;;;;4992145;28;20207;-64
2021/07/05 10:01:53;;;;;;;8.20;3.47;;;18.40;54.40;;;;;;4992344;28;20726;-63
2021/07/05 10:04:26;;;;;;;9.53;3.50;;;18.30;43.70;;;;;;4991403;28;20731;-64
2021/07/05 10:06:56;;;;;;;4.50;3.30;;;18.30;20.70;;;;;;4992014;28;20231;-64
2021/07/05 10:09:35;;;;;;;5.00;3.50;;;18.30;29.10;;;;;;4992320;28;20231;-64
2021/07/05 10:12:22;;;;;;;6.67;3.43;;;18.30;25.60;;;;;;4991914;28;20230;-64
2021/07/05 10:14:58;;;;;;;6.13;4.67;;;18.40;38.20;;;;;;4992050;28;20208;-64
2021/07/05 10:17:26;;;;;;;6.40;5.63;;;18.40;1.00;;;;;;4992402;28;20231;-63
2021/07/05 10:19:53;;;;;;;8.20;3.20;;;18.50;1.00;;;;;;4992212;28;20211;-64
2021/07/05 10:22:22;;;;;;;6.10;3.47;;;18.50;9.40;;;;;;4991838;28;20212;-63
2021/07/05 10:24:50;;;;;;;7.77;3.20;;;18.40;1.00;;;;;;4991688;28;20238;-63
2021/07/05 10:27:17;;;;;;;11.87;3.53;;;18.50;1.00;;;;;;4992064;28;20293;-64
2021/07/05 10:29:47;;;;;;;7.90;3.53;;;18.60;1.00;;;;;;4992226;28;20655;-64
2021/07/05 10:32:15;;;;;;;4.50;3.70;;;18.40;1.00;;;;;;4991991;28;20302;-64
2021/07/05 10:34:42;;;;;;;6.77;3.87;;;18.40;1.00;;;;;;4991635;28;20243;-63
2021/07/05 10:37:14;;;;;;;5.67;3.20;;;18.40;1.00;;;;;;4991850;28;20635;-62
2021/07/05 10:39:42;;;;;;;7.20;3.83;;;18.40;9.20;;;;;;4992052;28;20248;-63
2021/07/05 10:42:27;;;;;;;5.43;3.33;;;18.40;1.00;;;;;;4991919;28;20204;-62
2021/07/05 10:44:54;;;;;;;6.47;3.50;;;18.30;1.00;;;;;;4991666;28;20212;-63
2021/07/05 10:47:42;;;;;;;9.30;4.20;;;18.50;1.00;;;;;;4991786;28;20231;-65
2021/07/05 10:50:10;;;;;;;6.43;3.77;;;18.50;9.40;;;;;;4991712;28;20230;-63
2021/07/05 10:52:49;;;;;;;6.60;4.60;;;18.60;9.30;;;;;;4992016;28;20258;-64
2021/07/05 10:55:39;;;;;;;9.13;4.40;;;18.80;11.20;;;;;;4991339;28;20734;-63
2021/07/05 10:58:16;;;;;;;5.80;4.13;;;19.00;1.00;;;;;;4991787;28;20224;-64
2021/07/05 11:00:44;;;;;;;9.00;4.77;;;19.40;1.00;;;;;;4991991;28;20250;-64
2021/07/05 11:03:12;;;;;;;7.30;4.90;;;19.50;1.00;;;;;;4991930;28;20211;-64
2021/07/05 11:05:43;;;;;;;7.73;4.30;;;19.70;1.00;;;;;;4991168;28;20350;-64
2021/07/05 11:08:30;;;;;;;6.50;4.10;;;19.90;1.00;;;;;;4991712;28;20207;-64
2021/07/05 11:11:26;;;;;;;7.03;4.57;;;19.70;1.00;;;;;;4991781;28;20239;-66
2021/07/05 11:14:15;;;;;;;5.70;3.90;;;19.80;99.90;;;;;;4967969;28;20692;-65
2021/07/05 11:17:03;;;;;;;6.80;4.00;;;19.90;99.90;;;;;;4993703;28;20636;-65
2021/07/05 11:19:51;;;;;;;8.13;3.60;;;20.00;99.90;;;;;;4995335;28;20290;-64
2021/07/05 11:22:21;;;;;;;6.27;3.87;;;20.20;99.90;;;;;;4991860;28;20207;-64
2021/07/05 11:25:04;;;;;;;4.97;3.70;;;20.00;99.90;;;;;;4994561;28;20282;-64
2021/07/05 11:27:47;;;;;;;8.07;3.90;;;20.10;1.00;;;;;;4995008;28;20223;-65
2021/07/05 11:30:29;;;;;;;7.90;4.03;;;20.20;99.90;;;;;;4994982;28;20662;-65
2021/07/05 11:33:00;;;;;;;6.67;3.80;;;20.10;99.90;;;;;;4994942;28;20208;-64
2021/07/05 11:35:29;;;;;;;9.00;3.90;;;20.20;99.90;;;;;;4995350;28;20211;-64
2021/07/05 11:37:57;;;;;;;7.37;3.70;;;20.40;99.90;;;;;;4998570;28;20207;-64
2021/07/05 11:40:47;;;;;;;6.57;3.47;;;20.10;99.90;;;;;;4995642;28;20211;-64
2021/07/05 11:43:18;;;;;;;6.13;3.90;;;20.00;99.90;;;;;;4996582;28;20215;-64
2021/07/05 11:45:49;;;;;;;5.87;4.17;;;19.90;99.90;;;;;;4997170;28;20266;-64
2021/07/05 11:48:49;;;;;;;7.83;4.37;;;19.90;99.90;;;;;;5001366;28;20262;-65
2021/07/05 11:51:17;;;;;;;6.53;4.10;;;20.00;99.90;;;;;;4993518;28;20208;-65
2021/07/05 11:53:49;;;;;;;7.57;4.17;;;20.10;99.90;;;;;;4994760;28;20294;-66
2021/07/05 11:56:29;;;;;;;4.53;3.80;;;20.30;99.90;;;;;;4993922;28;20652;-66
2021/07/05 11:58:57;;;;;;;5.50;4.07;;;20.40;99.90;;;;;;4994500;28;20270;-64
2021/07/05 12:01:26;;;;;;;5.33;4.10;;;20.40;99.90;;;;;;4994388;28;20266;-64
2021/07/05 12:03:53;;;;;;;6.73;4.40;;;20.50;99.90;;;;;;4994234;28;20213;-65
2021/07/05 12:06:20;;;;;;;9.20;4.80;;;20.60;99.90;;;;;;4993911;28;20228;-65
2021/07/05 12:08:54;;;;;;;6.60;4.03;;;20.60;99.90;;;;;;4994354;28;20208;-65
2021/07/05 12:11:49;;;;;;;7.57;4.40;;;20.60;99.90;;;;;;4994333;28;20266;-64
2021/07/05 12:14:19;;;;;;;6.63;4.53;;;20.50;99.90;;;;;;4970743;28;20634;-64
2021/07/05 12:16:48;;;;;;;7.27;4.10;;;20.40;99.90;;;;;;4993986;28;20227;-64
2021/07/05 12:19:16;;;;;;;7.13;3.90;;;20.40;99.90;;;;;;4994291;28;20243;-64
2021/07/05 12:21:45;;;;;;;7.40;4.20;;;20.60;99.90;;;;;;4994036;28;20583;-65
2021/07/05 12:24:18;;;;;;;4.80;3.73;;;20.80;99.90;;;;;;4993956;28;20211;-64
2021/07/05 12:26:48;;;;;;;5.93;3.37;;;21.00;99.90;;;;;;4993565;28;20271;-65
2021/07/05 12:29:19;;;;;;;6.63;3.83;;;20.80;99.90;;;;;;4993851;28;20212;-64
2021/07/05 12:32:08;;;;;;;7.60;4.00;;;20.90;99.90;;;;;;4993866;28;20306;-63
2021/07/05 12:34:42;;;;;;;5.27;4.20;;;20.80;99.90;;;;;;4993672;28;20298;-65
2021/07/05 12:37:14;;;;;;;5.50;3.83;;;20.60;99.90;;;;;;4993652;28;20777;-64
2021/07/05 12:39:46;;;;;;;6.90;4.70;;;20.40;99.90;;;;;;4993714;28;20210;-64
2021/07/05 12:42:38;;;;;;;8.50;4.53;;;20.20;99.90;;;;;;4993799;28;20204;-65
2021/07/05 12:45:19;;;;;;;5.80;4.10;;;20.40;99.90;;;;;;4993393;28;20207;-65
2021/07/05 12:47:48;;;;;;;5.87;4.37;;;20.60;99.90;;;;;;4994234;28;20216;-65
2021/07/05 12:50:17;;;;;;;9.23;4.53;;;20.40;99.90;;;;;;4993404;28;20224;-64
2021/07/05 12:53:12;;;;;;;7.77;4.50;;;20.30;99.90;;;;;;4993916;28;20231;-64
2021/07/05 12:55:49;;;;;;;7.03;4.33;;;20.30;99.90;;;;;;4993230;28;20297;-64
2021/07/05 12:58:16;;;;;;;6.10;4.80;;;20.30;99.90;;;;;;4993334;28;20307;-64
2021/07/05 13:00:49;;;;;;;9.53;5.00;;;20.50;99.90;;;;;;4993311;28;20258;-64